createdAt,value
2022-10-15T00:00:28.215Z,100717.97
2022-10-15T00:02:56.504Z,100711.72
2022-10-15T00:05:24.730Z,100720.00
2022-10-15T00:07:53.218Z,100715.78
2022-10-15T00:10:21.365Z,100713.78
2022-10-15T00:12:49.523Z,100713.78
2022-10-15T00:15:19.123Z,100716.09
2022-10-15T00:17:47.519Z,100715.78
2022-10-15T00:20:15.722Z,100717.47
2022-10-15T00:22:43.821Z,100713.41
2022-10-15T00:25:11.923Z,100712.75
2022-10-15T00:27:40.097Z,100717.63
2022-10-15T00:30:08.717Z,100721.16
2022-10-15T00:32:38.160Z,100719.47
2022-10-15T00:35:08.284Z,100715.63
2022-10-15T00:37:36.352Z,100712.09
2022-10-15T00:40:04.751Z,100708.38
2022-10-15T00:42:34.237Z,100713.25
2022-10-15T00:45:02.353Z,100714.94
2022-10-15T00:47:36.302Z,100713.78
2022-10-15T00:50:07.949Z,100701.66
2022-10-15T00:52:41.282Z,100711.22
2022-10-15T00:55:12.347Z,100709.38
2022-10-15T00:57:41.492Z,100705.84
2022-10-15T01:00:11.708Z,100714.09
2022-10-15T01:02:41.263Z,100713.78
2022-10-15T01:05:11.394Z,100706.50
2022-10-15T01:07:41.522Z,100710.72
2022-10-15T01:10:11.339Z,100712.56
2022-10-15T01:12:44.893Z,100713.06
2022-10-15T01:15:16.799Z,100710.91
2022-10-15T01:17:48.388Z,100714.09
2022-10-15T01:20:35.166Z,100711.22
2022-10-15T01:23:15.396Z,100713.78
2022-10-15T01:25:50.341Z,100721.66
2022-10-15T01:28:25.986Z,100726.91
2022-10-15T01:31:00.339Z,100721.34
2022-10-15T01:33:34.363Z,100729.41
2022-10-15T01:36:09.187Z,100725.19
2022-10-15T01:38:45.045Z,100730.41
2022-10-15T01:41:14.684Z,100732.09
2022-10-15T01:43:47.209Z,100730.25
2022-10-15T01:46:46.571Z,100728.38
2022-10-15T01:49:22.130Z,100728.56
2022-10-15T01:51:51.986Z,100732.94
2022-10-15T01:54:20.922Z,100740.03
2022-10-15T01:56:50.798Z,100734.47
2022-10-15T01:59:23.858Z,100732.59
2022-10-15T02:01:55.075Z,100733.44
2022-10-15T02:04:26.952Z,100734.28
2022-10-15T02:06:59.348Z,100740.69
2022-10-15T02:09:33.715Z,100735.28
2022-10-15T02:12:07.000Z,100745.03
2022-10-15T02:14:36.284Z,100738.69
2022-10-15T02:17:07.955Z,100742.53
2022-10-15T02:19:41.316Z,100748.09
2022-10-15T02:22:12.713Z,100738.00
2022-10-15T02:24:43.459Z,100741.69
2022-10-15T02:27:13.806Z,100747.91
2022-10-15T02:29:43.983Z,100753.13
2022-10-15T02:32:14.758Z,100749.59
2022-10-15T02:34:43.035Z,100749.59
2022-10-15T02:37:11.218Z,100755.81
2022-10-15T02:39:43.252Z,100752.13
2022-10-15T02:42:11.352Z,100752.28
2022-10-15T02:44:39.423Z,100755.16
2022-10-15T02:47:08.397Z,100757.84
2022-10-15T02:49:37.887Z,100765.75
2022-10-15T02:52:06.451Z,100756.84
2022-10-15T02:54:35.004Z,100758.50
2022-10-15T02:57:03.180Z,100760.34
2022-10-15T02:59:31.412Z,100765.22
2022-10-15T03:02:00.618Z,100771.31
2022-10-15T03:04:29.877Z,100767.78
2022-10-15T03:07:01.122Z,100765.09
2022-10-15T03:09:29.532Z,100769.63
2022-10-15T03:11:57.583Z,100768.25
2022-10-15T03:14:25.810Z,100771.97
2022-10-15T03:16:54.048Z,100779.03
2022-10-15T03:19:22.174Z,100772.66
2022-10-15T03:21:50.675Z,100772.47
2022-10-15T03:24:20.173Z,100772.97
2022-10-15T03:26:48.352Z,100774.50
2022-10-15T03:29:16.455Z,100769.97
2022-10-15T03:31:58.084Z,100768.25
2022-10-15T03:34:26.209Z,100765.56
2022-10-15T03:36:54.698Z,100764.72
2022-10-15T03:39:24.495Z,100769.13
2022-10-15T03:41:57.251Z,100772.66
2022-10-15T03:44:34.384Z,100770.63
2022-10-15T03:47:12.591Z,100774.16
2022-10-15T03:49:46.893Z,100769.78
2022-10-15T03:52:15.488Z,100775.16
2022-10-15T03:54:45.883Z,100775.50
2022-10-15T03:57:16.960Z,100778.19
2022-10-15T03:59:49.343Z,100774.50
2022-10-15T04:02:18.755Z,100778.03
2022-10-15T04:04:46.954Z,100774.31
2022-10-15T04:07:15.247Z,100771.44
2022-10-15T04:09:43.501Z,100781.22
2022-10-15T04:12:24.770Z,100778.53
2022-10-15T04:14:53.023Z,100782.06
2022-10-15T04:17:21.140Z,100780.41
2022-10-15T04:19:50.339Z,100781.38
2022-10-15T04:22:18.481Z,100778.69
2022-10-15T04:24:53.413Z,100775.84
2022-10-15T04:27:32.495Z,100775.84
2022-10-15T04:30:10.665Z,100777.53
2022-10-15T04:32:43.698Z,100780.22
2022-10-15T04:35:13.138Z,100780.41
2022-10-15T04:37:58.938Z,100786.75
2022-10-15T04:40:28.464Z,100785.59
2022-10-15T04:42:58.298Z,100778.38
2022-10-15T04:45:26.628Z,100787.28
2022-10-15T04:47:54.825Z,100789.97
2022-10-15T04:50:23.298Z,100787.13
2022-10-15T04:53:10.548Z,100788.81
2022-10-15T04:55:40.870Z,100793.16
2022-10-15T04:58:10.392Z,100793.16
2022-10-15T05:00:38.770Z,100790.66
2022-10-15T05:03:06.875Z,100796.19
2022-10-15T05:05:45.534Z,100798.56
2022-10-15T05:08:13.741Z,100801.94
2022-10-15T05:11:02.868Z,100803.78
2022-10-15T05:13:33.269Z,100811.03
2022-10-15T05:16:10.353Z,100806.47
2022-10-15T05:18:39.055Z,100801.25
2022-10-15T05:21:07.679Z,100803.63
2022-10-15T05:23:36.982Z,100804.44
2022-10-15T05:26:28.264Z,100812.38
2022-10-15T05:28:58.999Z,100804.44
2022-10-15T05:31:31.960Z,100812.38
2022-10-15T05:34:16.638Z,100810.34
2022-10-15T05:36:51.516Z,100814.38
2022-10-15T05:39:19.654Z,100811.69
2022-10-15T05:41:47.821Z,100817.91
2022-10-15T05:44:17.490Z,100815.53
2022-10-15T05:46:45.554Z,100823.28
2022-10-15T05:49:20.360Z,100815.22
2022-10-15T05:51:57.575Z,100826.50
2022-10-15T05:54:42.859Z,100820.59
2022-10-15T05:57:10.911Z,100823.59
2022-10-15T05:59:40.397Z,100828.66
2022-10-15T06:02:09.918Z,100837.44
2022-10-15T06:04:37.995Z,100825.47
2022-10-15T06:07:06.155Z,100830.53
2022-10-15T06:09:34.228Z,100833.22
2022-10-15T06:12:02.353Z,100842.84
2022-10-15T06:14:30.746Z,100839.81
2022-10-15T06:17:00.210Z,100836.78
2022-10-15T06:19:28.345Z,100836.78
2022-10-15T06:21:56.629Z,100832.94
2022-10-15T06:24:24.734Z,100828.38
2022-10-15T06:26:52.822Z,100830.72
2022-10-15T06:29:20.897Z,100836.94
2022-10-15T06:31:53.410Z,100833.41
2022-10-15T06:34:22.857Z,100823.34
2022-10-15T06:36:51.008Z,100826.19
2022-10-15T06:39:19.217Z,100832.72
2022-10-15T06:41:47.278Z,100827.56
2022-10-15T06:44:15.373Z,100825.22
2022-10-15T06:46:43.456Z,100841.06
2022-10-15T06:49:11.520Z,100834.31
2022-10-15T06:51:45.426Z,100842.41
2022-10-15T06:54:13.666Z,100846.44
2022-10-15T06:56:41.790Z,100845.28
2022-10-15T06:59:09.876Z,100847.47
2022-10-15T07:01:41.353Z,100849.97
2022-10-15T07:04:10.590Z,100849.31
2022-10-15T07:06:38.681Z,100847.13
2022-10-15T07:09:08.156Z,100849.47
2022-10-15T07:11:36.245Z,100848.94
2022-10-15T07:14:04.386Z,100847.78
2022-10-15T07:16:32.480Z,100855.34
2022-10-15T07:19:00.597Z,100847.59
2022-10-15T07:21:28.764Z,100853.84
2022-10-15T07:23:56.814Z,100850.16
2022-10-15T07:26:26.299Z,100858.75
2022-10-15T07:28:54.598Z,100861.06
2022-10-15T07:31:22.757Z,100860.94
2022-10-15T07:33:50.875Z,100864.78
2022-10-15T07:36:20.831Z,100871.19
2022-10-15T07:38:48.965Z,100871.66
2022-10-15T07:41:17.061Z,100867.81
2022-10-15T07:43:46.602Z,100875.03
2022-10-15T07:46:14.631Z,100879.41
2022-10-15T07:48:42.673Z,100876.22
2022-10-15T07:51:12.202Z,100879.75
2022-10-15T07:53:40.335Z,100884.13
2022-10-15T07:56:09.875Z,100875.88
2022-10-15T07:58:38.334Z,100877.72
2022-10-15T08:01:08.867Z,100879.72
2022-10-15T08:03:36.940Z,100885.59
2022-10-15T08:06:06.604Z,100880.34
2022-10-15T08:08:35.029Z,100886.13
2022-10-15T08:11:05.630Z,100883.63
2022-10-15T08:13:33.717Z,100886.47
2022-10-15T08:16:01.759Z,100881.97
2022-10-15T08:18:31.232Z,100878.59
2022-10-15T08:21:00.458Z,100874.22
2022-10-15T08:23:29.089Z,100886.50
2022-10-15T08:25:58.720Z,100878.94
2022-10-15T08:28:26.952Z,100884.66
2022-10-15T08:30:55.722Z,100887.34
2022-10-15T08:33:23.851Z,100881.81
2022-10-15T08:35:53.311Z,100883.81
2022-10-15T08:38:21.541Z,100880.63
2022-10-15T08:40:49.994Z,100888.88
2022-10-15T08:43:21.369Z,100894.97
2022-10-15T08:45:50.874Z,100890.91
2022-10-15T08:48:22.448Z,100893.28
2022-10-15T08:50:58.192Z,100893.63
2022-10-15T08:53:27.622Z,100905.09
2022-10-15T08:55:58.145Z,100901.00
2022-10-15T08:58:30.422Z,100902.03
2022-10-15T09:01:00.052Z,100896.81
2022-10-15T09:03:34.860Z,100893.09
2022-10-15T09:06:08.027Z,100890.75
2022-10-15T09:08:40.864Z,100886.88
2022-10-15T09:11:14.874Z,100889.94
2022-10-15T09:13:45.104Z,100891.44
2022-10-15T09:16:15.383Z,100891.59
2022-10-15T09:18:45.288Z,100888.72
2022-10-15T09:21:15.023Z,100886.38
2022-10-15T09:23:43.966Z,100891.59
2022-10-15T09:26:21.485Z,100888.56
2022-10-15T09:28:53.584Z,100892.25
2022-10-15T09:31:25.035Z,100891.94
2022-10-15T09:33:55.546Z,100889.41
2022-10-15T09:36:36.749Z,100885.88
2022-10-15T09:39:15.024Z,100889.91
2022-10-15T09:41:51.716Z,100892.28
2022-10-15T09:44:21.258Z,100891.94
2022-10-15T09:46:52.015Z,100895.81
2022-10-15T09:49:21.790Z,100891.28
2022-10-15T09:52:00.431Z,100890.06
2022-10-15T09:54:33.883Z,100892.94
2022-10-15T09:57:02.028Z,100893.09
2022-10-15T10:02:06.775Z,100893.63
2022-10-15T10:04:37.277Z,100892.44
2022-10-15T10:07:08.475Z,100890.25
2022-10-15T10:09:38.503Z,100886.22
2022-10-15T10:12:07.790Z,100888.22
2022-10-15T10:14:37.530Z,100886.53
2022-10-15T10:17:15.464Z,100895.81
2022-10-15T10:19:43.684Z,100888.91
2022-10-15T10:22:17.670Z,100881.84
2022-10-15T10:24:46.177Z,100888.56
2022-10-15T10:27:23.523Z,100884.00
2022-10-15T10:29:56.606Z,100891.44
2022-10-15T10:32:28.245Z,100889.75
2022-10-15T10:34:56.947Z,100893.78
2022-10-15T10:37:27.040Z,100897.81
2022-10-15T10:39:56.998Z,100894.47
2022-10-15T10:42:32.152Z,100893.47
2022-10-15T10:45:19.122Z,100894.63
2022-10-15T10:47:47.682Z,100892.44
2022-10-15T10:50:33.099Z,100891.75
2022-10-15T10:53:13.841Z,100895.81
2022-10-15T10:55:42.042Z,100899.19
2022-10-15T10:58:20.146Z,100891.44
2022-10-15T11:00:52.430Z,100889.59
2022-10-15T11:03:23.528Z,100894.28
2022-10-15T11:06:02.766Z,100888.41
2022-10-15T11:08:37.303Z,100890.78
2022-10-15T11:11:09.484Z,100890.75
2022-10-15T11:13:45.142Z,100899.88
2022-10-15T11:16:20.848Z,100879.13
2022-10-15T11:19:13.853Z,100884.03
2022-10-15T11:21:54.208Z,100879.13
2022-10-15T11:24:37.810Z,100882.66
2022-10-15T11:27:23.682Z,100880.81
2022-10-15T11:29:56.360Z,100882.16
2022-10-15T11:32:54.527Z,100875.94
2022-10-15T11:35:51.703Z,100874.25
2022-10-15T11:38:24.472Z,100883.16
2022-10-15T11:41:02.803Z,100885.34
2022-10-15T11:43:38.926Z,100878.47
2022-10-15T11:46:11.588Z,100880.81
2022-10-15T11:48:50.318Z,100876.59
2022-10-15T11:51:27.724Z,100871.19
2022-10-15T11:54:10.755Z,100881.47
2022-10-15T11:56:42.661Z,100884.03
2022-10-15T11:59:17.449Z,100877.59
2022-10-15T12:01:49.851Z,100878.59
2022-10-15T12:04:20.467Z,100879.63
2022-10-15T12:06:52.040Z,100874.75
2022-10-15T12:09:24.015Z,100873.03
2022-10-15T12:11:59.554Z,100878.28
2022-10-15T12:14:33.410Z,100879.94
2022-10-15T12:17:05.889Z,100869.31
2022-10-15T12:19:38.919Z,100872.03
2022-10-15T12:22:11.385Z,100874.53
2022-10-15T12:24:53.631Z,100866.44
